Crawfordsville, IN (47937)

1:21 AM EST on January 27, 2015 (GMT -0500)
Wabash College Campus | Change Station
CLOSE
Current Station
Personal Weather Station
Location: Crawfordsville, IN
Elevation: 778 ft
Nearby Weather Stations

Elev 778 ft 40.04 °N, 86.91 °W | Updated 5 seconds ago

Overcast
Overcast
27.5 °F
Feels Like 28 °F
N
2.2
Wind Variable Wind from SE
Gusts 2.2 mph

Today
High -- | Low -- °F
--% Chance of Precip.
Yesterday
High -- | Low -- °F
Precip. -- in
8:00 AM 6:00 PM
Waxing Crescent, 51% visible
Pressure 29.91 in
Visibility 7.0 miles
Clouds Scattered Clouds 800 ft
Overcast 3000 ft
Windchill 28 °F
Dew Point 24 °F
Humidity 87%
Rainfall 0.00 in
Snow Depth Not available.
UV 0 out of 12
Pollen .10 out of 12
Air Quality Not available.
Flu Activity Not available.
SPECI KLAF 270610Z AUTO 00000KT 7SM SCT008 OVC030 M03/M04 A2991 RMK AO2 T10331044 TSNO

More Conditions Fewer Conditions

Pressure 29.91 in
Visibility 7.0 miles
Clouds Scattered Clouds 800 ft
Overcast 3000 ft
Windchill 28 °F
Dew Point 24 °F
Humidity 87%
Rainfall 0.00 in
Snow Depth Not available.
UV 0 out of 12
Pollen .10 out of 12
Air Quality Not available.
Flu Activity Not available.
SPECI KLAF 270610Z AUTO 00000KT 7SM SCT008 OVC030 M03/M04 A2991 RMK AO2 T10331044 TSNO

More Conditions Fewer Conditions

10-Day Weather Forecast

Almanac

Astronomy

Jan. 27, 2015 Rise Set
Actual Time
Civil Twilight
Nautical Twilight
Astronomical Twilight
Moon
Length of Visible Light
Length of Day
Tomorrow will be .
, % of the Moon is Illuminated

Today's Extremes

State Highs State Lows

Community

WunderPhotos

Upload Photos

1,790,542 photos uploaded!

WunderBlogs® & News

Nearby

Air Quality

  Air Quality AQ Index Pollutant
Not available.

Snow Depth

Station Depth Elevation

Earthquake Activity

City Distance Mag. Time & Date
Minimum magnitude displayed is 2.5.

Coastal Water Temperatures

Place Temperature

Nearby Weather Stations